createdAt,value
2022-09-28T00:02:28.853Z,17.07
2022-09-28T00:07:31.313Z,19.30
2022-09-28T00:12:33.814Z,17.50
2022-09-28T00:17:36.495Z,15.97
2022-09-28T00:22:39.138Z,17.60
2022-09-28T00:27:41.483Z,20.43
2022-09-28T00:32:43.903Z,22.30
2022-09-28T00:37:48.911Z,22.53
2022-09-28T00:42:51.454Z,21.30
2022-09-28T00:47:58.089Z,17.73
2022-09-28T00:53:21.007Z,17.90
2022-09-28T00:58:30.188Z,17.43
2022-09-28T01:03:33.736Z,15.83
2022-09-28T01:08:37.309Z,14.90
2022-09-28T01:13:41.247Z,13.83
2022-09-28T01:19:02.375Z,11.57
2022-09-28T01:24:17.487Z,13.73
2022-09-28T01:29:24.946Z,11.00
2022-09-28T01:34:35.857Z,11.53
2022-09-28T01:39:44.159Z,10.33
2022-09-28T01:44:51.906Z,9.20
2022-09-28T01:50:07.307Z,9.37
2022-09-28T01:55:31.241Z,7.53
2022-09-28T02:00:36.105Z,10.77
2022-09-28T02:05:48.945Z,8.33
2022-09-28T02:11:02.158Z,10.63
2022-09-28T02:16:31.339Z,9.30
2022-09-28T02:21:59.295Z,9.07
2022-09-28T02:27:14.644Z,11.30
2022-09-28T02:32:20.179Z,12.33
2022-09-28T02:37:22.710Z,21.57
2022-09-28T02:42:29.454Z,32.93
2022-09-28T02:47:54.977Z,33.23
2022-09-28T02:53:12.853Z,29.83
2022-09-28T02:58:15.127Z,23.53
2022-09-28T03:03:52.734Z,20.73
2022-09-28T03:09:03.277Z,24.03
2022-09-28T03:14:09.978Z,15.50
2022-09-28T03:19:28.031Z,11.60
2022-09-28T03:24:30.482Z,18.33
2022-09-28T03:29:34.460Z,17.87
2022-09-28T03:34:40.404Z,12.80
2022-09-28T03:39:42.906Z,15.43
2022-09-28T03:44:45.286Z,12.30
2022-09-28T03:49:48.126Z,15.43
2022-09-28T03:54:50.515Z,16.70
2022-09-28T03:59:52.834Z,16.07
2022-09-28T04:04:55.420Z,11.60
2022-09-28T04:09:57.850Z,10.93
2022-09-28T04:15:00.442Z,17.37
2022-09-28T04:20:03.777Z,14.97
2022-09-28T04:25:19.308Z,14.23
2022-09-28T04:30:22.059Z,17.27
2022-09-28T04:35:24.524Z,25.23
2022-09-28T04:40:27.063Z,41.50
2022-09-28T04:45:29.785Z,15.57
2022-09-28T04:50:38.839Z,13.10
2022-09-28T04:55:42.185Z,13.50
2022-09-28T05:00:44.698Z,12.57
2022-09-28T05:06:10.322Z,9.73
2022-09-28T05:11:19.898Z,15.17
2022-09-28T05:16:22.344Z,16.90
2022-09-28T05:21:46.060Z,57.33
2022-09-28T05:26:48.534Z,49.57
2022-09-28T05:31:50.974Z,41.00
2022-09-28T05:37:02.414Z,36.37
2022-09-28T05:42:07.495Z,34.57
2022-09-28T05:47:10.462Z,29.47
2022-09-28T05:52:13.124Z,26.63
2022-09-28T05:57:15.854Z,21.30
2022-09-28T06:02:18.505Z,28.73
2022-09-28T06:07:22.002Z,26.17
2022-09-28T06:12:24.939Z,25.10
2022-09-28T06:17:30.696Z,28.63
2022-09-28T06:22:54.214Z,32.87
2022-09-28T06:28:05.338Z,27.27
2022-09-28T06:33:10.903Z,17.63
2022-09-28T06:38:13.612Z,13.87
2022-09-28T06:43:16.173Z,13.10
2022-09-28T06:48:38.150Z,17.97
2022-09-28T06:53:43.999Z,16.47
2022-09-28T06:59:06.612Z,13.23
2022-09-28T07:04:10.521Z,14.30
2022-09-28T07:09:33.559Z,10.17
2022-09-28T07:14:48.385Z,15.43
2022-09-28T07:19:52.749Z,12.77
2022-09-28T07:24:55.499Z,11.20
2022-09-28T07:30:16.551Z,9.90
2022-09-28T07:35:39.412Z,10.87
2022-09-28T07:41:00.388Z,8.27
2022-09-28T07:46:02.981Z,6.80
2022-09-28T07:51:05.795Z,7.33
2022-09-28T07:56:12.008Z,12.17
2022-09-28T08:01:31.017Z,8.33
2022-09-28T08:06:34.525Z,9.77
2022-09-28T08:11:38.756Z,10.27
2022-09-28T08:16:58.384Z,6.60
2022-09-28T08:22:12.587Z,7.87
2022-09-28T08:27:17.266Z,7.13
2022-09-28T08:32:20.051Z,7.73
2022-09-28T08:37:57.282Z,7.53
2022-09-28T08:44:01.285Z,7.43
2022-09-28T08:49:25.542Z,6.00
2022-09-28T08:54:58.971Z,6.70
2022-09-28T09:00:10.963Z,9.23
2022-09-28T09:05:20.836Z,6.50
2022-09-28T09:11:01.238Z,9.93
2022-09-28T09:16:32.252Z,7.80
2022-09-28T09:22:31.757Z,8.10
2022-09-28T09:27:55.830Z,10.60
2022-09-28T09:33:39.624Z,9.17
2022-09-28T09:39:18.279Z,6.97
2022-09-28T09:44:53.870Z,8.23
2022-09-28T09:50:25.334Z,6.50
2022-09-28T09:55:36.460Z,4.80
2022-09-28T10:00:56.259Z,6.27
2022-09-28T10:06:30.225Z,5.87
2022-09-28T10:11:49.977Z,6.60
2022-09-28T10:16:55.638Z,9.33
2022-09-28T10:22:20.791Z,5.73
2022-09-28T10:27:33.735Z,15.03
2022-09-28T10:32:45.165Z,6.07
2022-09-28T10:38:03.345Z,6.27
2022-09-28T10:43:38.704Z,5.80
2022-09-28T10:48:47.044Z,5.60
2022-09-28T10:54:17.108Z,4.17
2022-09-28T10:59:29.869Z,6.27
2022-09-28T11:05:01.950Z,6.23
2022-09-28T11:10:23.779Z,6.90
2022-09-28T11:15:31.378Z,6.77
2022-09-28T11:20:36.005Z,6.30
2022-09-28T11:25:41.262Z,10.87
2022-09-28T11:30:49.993Z,6.90
2022-09-28T11:36:41.676Z,5.00
2022-09-28T11:41:53.224Z,7.37
2022-09-28T11:47:23.820Z,4.60
2022-09-28T11:52:54.452Z,11.17
2022-09-28T11:58:22.485Z,8.63
2022-09-28T12:03:40.948Z,5.10
2022-09-28T12:08:49.468Z,6.13
2022-09-28T12:14:34.680Z,3.87
2022-09-28T12:19:46.646Z,5.20
2022-09-28T12:24:52.826Z,8.30
2022-09-28T12:29:55.152Z,7.73
2022-09-28T12:34:57.962Z,4.23
2022-09-28T12:40:18.442Z,25.07
2022-09-28T12:46:09.727Z,9.33
2022-09-28T12:51:14.737Z,8.30
2022-09-28T12:56:57.847Z,8.07
2022-09-28T13:02:25.027Z,20.97
2022-09-28T13:07:49.913Z,17.20
2022-09-28T13:13:05.276Z,19.77
2022-09-28T13:18:07.555Z,25.43
2022-09-28T13:23:22.365Z,16.17
2022-09-28T13:28:27.369Z,29.03
2022-09-28T13:33:35.765Z,17.07
2022-09-28T13:38:47.512Z,30.40
2022-09-28T13:44:12.374Z,33.13
2022-09-28T13:49:37.254Z,67.30
2022-09-28T13:55:05.943Z,80.90
2022-09-28T14:00:11.614Z,76.47
2022-09-28T14:05:22.936Z,15.40
2022-09-28T14:10:50.840Z,25.47
2022-09-28T14:15:53.921Z,14.73
2022-09-28T14:21:25.699Z,71.73
2022-09-28T14:26:55.810Z,21.90
2022-09-28T14:32:04.704Z,12.40
2022-09-28T14:37:43.967Z,12.13
2022-09-28T14:43:24.588Z,15.43
2022-09-28T14:49:25.584Z,23.43
2022-09-28T14:54:46.981Z,12.30
2022-09-28T14:59:49.587Z,29.33
2022-09-28T15:05:02.560Z,58.80
2022-09-28T15:10:35.066Z,29.57
2022-09-28T15:15:41.131Z,26.63
2022-09-28T15:20:49.025Z,35.47
2022-09-28T15:25:55.308Z,30.57
2022-09-28T15:31:03.354Z,33.90
2022-09-28T15:36:07.394Z,91.27
2022-09-28T15:41:11.207Z,26.77
2022-09-28T15:46:21.174Z,31.07
2022-09-28T15:51:24.611Z,62.93
2022-09-28T15:56:28.261Z,45.93
2022-09-28T16:01:42.236Z,108.00
2022-09-28T16:06:44.663Z,69.27
2022-09-28T16:11:49.835Z,55.30
2022-09-28T16:16:53.269Z,21.07
2022-09-28T16:21:58.166Z,42.80
2022-09-28T16:27:07.175Z,36.77
2022-09-28T16:32:34.048Z,52.93
2022-09-28T16:37:36.849Z,33.47
2022-09-28T16:42:48.067Z,40.00
2022-09-28T16:47:54.980Z,63.63
2022-09-28T16:53:19.747Z,113.90
2022-09-28T16:58:22.647Z,41.33
2022-09-28T17:03:26.024Z,33.17
2022-09-28T17:08:28.529Z,28.63
2022-09-28T17:13:34.631Z,78.93
2022-09-28T17:18:39.244Z,126.83
2022-09-28T17:23:42.890Z,153.10
2022-09-28T17:28:45.283Z,145.63
2022-09-28T17:33:47.720Z,172.03
2022-09-28T17:38:51.785Z,115.27
2022-09-28T17:43:54.120Z,104.10
2022-09-28T17:48:59.568Z,95.07
2022-09-28T17:54:02.626Z,38.33
2022-09-28T17:59:07.430Z,33.37
2022-09-28T18:04:33.321Z,31.83
2022-09-28T18:09:36.386Z,72.33
2022-09-28T18:14:39.949Z,52.03
2022-09-28T18:19:42.309Z,46.00
2022-09-28T18:24:44.988Z,34.53
2022-09-28T18:29:47.276Z,30.97
2022-09-28T18:34:49.683Z,27.67
2022-09-28T18:39:52.449Z,38.17
2022-09-28T18:44:54.795Z,59.10
2022-09-28T18:49:58.592Z,44.53
2022-09-28T18:55:00.898Z,51.27
2022-09-28T19:00:06.842Z,63.00
2022-09-28T19:05:09.718Z,54.53
2022-09-28T19:10:12.122Z,22.83
2022-09-28T19:15:14.571Z,20.67
2022-09-28T19:20:17.335Z,17.47
2022-09-28T19:25:19.944Z,21.17
2022-09-28T19:30:22.321Z,17.47
2022-09-28T19:35:24.637Z,17.60
2022-09-28T19:40:27.025Z,18.20
2022-09-28T19:45:29.473Z,23.67
2022-09-28T19:50:32.317Z,77.27
2022-09-28T19:55:36.308Z,37.77
2022-09-28T20:00:38.689Z,30.07
2022-09-28T20:05:42.432Z,44.70
2022-09-28T20:10:52.487Z,46.93
2022-09-28T20:15:56.449Z,84.33
2022-09-28T20:21:06.548Z,47.47
2022-09-28T20:26:12.418Z,26.07
2022-09-28T20:31:17.974Z,24.87
2022-09-28T20:36:25.307Z,69.97
2022-09-28T20:41:28.213Z,55.50
2022-09-28T20:46:30.713Z,44.27
2022-09-28T20:51:33.393Z,35.93
2022-09-28T20:56:39.296Z,32.47
2022-09-28T21:01:41.834Z,20.90
2022-09-28T21:06:44.476Z,39.50
2022-09-28T21:11:48.148Z,160.40
2022-09-28T21:16:59.556Z,90.10
2022-09-28T21:22:01.850Z,61.77
2022-09-28T21:27:04.731Z,40.70
2022-09-28T21:32:08.247Z,40.17
2022-09-28T21:37:10.629Z,29.93
2022-09-28T21:42:12.898Z,29.57
2022-09-28T21:47:15.273Z,33.17
2022-09-28T21:52:18.168Z,21.80
2022-09-28T21:57:20.464Z,22.23
2022-09-28T22:02:23.215Z,19.90
2022-09-28T22:07:25.715Z,21.53
2022-09-28T22:12:29.813Z,24.00
2022-09-28T22:17:32.265Z,19.83
2022-09-28T22:22:34.952Z,19.23
2022-09-28T22:27:39.037Z,20.30
2022-09-28T22:32:41.394Z,15.90
2022-09-28T22:37:43.654Z,18.87
2022-09-28T22:42:46.016Z,26.17
2022-09-28T22:47:48.343Z,21.80
2022-09-28T22:52:51.104Z,26.07
2022-09-28T22:57:53.554Z,24.60
2022-09-28T23:02:55.874Z,27.80
2022-09-28T23:07:58.272Z,26.50
2022-09-28T23:13:00.638Z,25.03
2022-09-28T23:18:02.956Z,25.33
2022-09-28T23:23:05.471Z,20.40
2022-09-28T23:28:08.112Z,22.20
2022-09-28T23:33:15.230Z,26.97
2022-09-28T23:38:18.311Z,23.47
2022-09-28T23:43:20.888Z,19.17
2022-09-28T23:48:23.252Z,21.70
2022-09-28T23:53:25.821Z,20.57
2022-09-28T23:58:28.258Z,19.60
